createdAt,value
2017-06-29T00:00:11.570Z,0
2017-06-29T00:01:11.292Z,0
2017-06-29T00:02:11.921Z,0
2017-06-29T00:03:11.346Z,0
2017-06-29T00:04:11.999Z,0
2017-06-29T00:05:11.724Z,0
2017-06-29T00:06:11.761Z,0
2017-06-29T00:07:12.089Z,0
2017-06-29T00:08:11.505Z,0
2017-06-29T00:09:11.843Z,0
2017-06-29T00:10:11.871Z,0
2017-06-29T00:11:11.893Z,0
2017-06-29T00:12:12.223Z,0
2017-06-29T00:13:11.313Z,0
2017-06-29T00:14:11.364Z,0
2017-06-29T00:15:12.343Z,0
2017-06-29T00:16:11.788Z,0
2017-06-29T00:17:12.320Z,0
2017-06-29T00:18:11.794Z,0
2017-06-29T00:19:12.451Z,0
2017-06-29T00:20:12.148Z,0
2017-06-29T00:21:12.192Z,0
2017-06-29T00:22:12.780Z,0
2017-06-29T00:23:12.250Z,0
2017-06-29T00:24:12.271Z,0
2017-06-29T00:25:12.308Z,0
2017-06-29T00:26:11.713Z,0
2017-06-29T00:27:12.678Z,0
2017-06-29T00:28:12.406Z,0
2017-06-29T00:29:12.109Z,0
2017-06-29T00:30:12.459Z,0
2017-06-29T00:31:12.476Z,0
2017-06-29T00:32:12.457Z,0
2017-06-29T00:33:12.833Z,0
2017-06-29T00:34:12.565Z,0
2017-06-29T00:35:12.292Z,0
2017-06-29T00:36:12.635Z,0
2017-06-29T00:37:12.903Z,0
2017-06-29T00:38:12.375Z,0
2017-06-29T00:39:12.710Z,0
2017-06-29T00:40:12.742Z,0
2017-06-29T00:41:12.784Z,0
2017-06-29T00:42:12.737Z,0
2017-06-29T00:43:12.814Z,0
2017-06-29T00:44:13.171Z,0
2017-06-29T00:45:13.187Z,0
2017-06-29T00:46:13.240Z,0
2017-06-29T00:47:12.931Z,0
2017-06-29T00:48:12.654Z,0
2017-06-29T00:49:12.702Z,0
2017-06-29T00:50:12.731Z,0
2017-06-29T00:51:13.381Z,0
2017-06-29T00:52:13.413Z,0
2017-06-29T00:53:13.118Z,0
2017-06-29T00:54:13.154Z,0
2017-06-29T00:55:13.511Z,0
2017-06-29T00:56:13.533Z,0
2017-06-29T00:57:13.880Z,0
2017-06-29T00:58:13.282Z,0
2017-06-29T00:59:13.303Z,0
2017-06-29T01:00:13.323Z,0
2017-06-29T01:01:13.056Z,0
2017-06-29T01:02:13.393Z,0
2017-06-29T01:03:13.402Z,0
2017-06-29T01:04:13.450Z,0
2017-06-29T01:05:13.481Z,0
2017-06-29T01:06:13.524Z,0
2017-06-29T01:07:13.226Z,0
2017-06-29T01:08:14.169Z,0
2017-06-29T01:09:12.690Z,0
2017-06-29T01:10:13.620Z,0
2017-06-29T01:11:13.372Z,0
2017-06-29T01:12:13.368Z,0
2017-06-29T01:13:13.965Z,0
2017-06-29T01:14:13.743Z,0
2017-06-29T01:15:14.083Z,0
2017-06-29T01:16:13.789Z,0
2017-06-29T01:17:13.518Z,0
2017-06-29T01:18:14.430Z,0
2017-06-29T01:19:13.575Z,0
2017-06-29T01:20:13.612Z,0
2017-06-29T01:21:13.950Z,0
2017-06-29T01:22:14.282Z,0
2017-06-29T01:23:14.318Z,0
2017-06-29T01:24:13.714Z,0
2017-06-29T01:25:14.377Z,0
2017-06-29T01:26:14.089Z,0
2017-06-29T01:27:14.129Z,0
2017-06-29T01:28:13.774Z,0
2017-06-29T01:29:13.868Z,0
2017-06-29T01:30:13.900Z,0
2017-06-29T01:31:14.249Z,0
2017-06-29T01:32:14.576Z,0
2017-06-29T01:33:14.599Z,0
2017-06-29T01:34:14.331Z,0
2017-06-29T01:35:14.043Z,0
2017-06-29T01:36:14.072Z,0
2017-06-29T01:37:14.709Z,0
2017-06-29T01:38:14.699Z,0
2017-06-29T01:39:14.796Z,0
2017-06-29T01:40:14.504Z,0
2017-06-29T01:41:14.841Z,0
2017-06-29T01:42:14.574Z,0
2017-06-29T01:43:14.886Z,0
2017-06-29T01:44:14.944Z,0
2017-06-29T01:45:14.632Z,0
2017-06-29T01:46:14.367Z,0
2017-06-29T01:47:14.389Z,0
2017-06-29T01:48:15.297Z,0
2017-06-29T01:49:14.763Z,0
2017-06-29T01:50:14.823Z,0
2017-06-29T01:51:15.128Z,0
2017-06-29T01:52:14.543Z,0
2017-06-29T01:53:15.494Z,0
2017-06-29T01:54:15.218Z,0
2017-06-29T01:55:14.624Z,0
2017-06-29T01:56:14.964Z,0
2017-06-29T01:57:15.010Z,0
2017-06-29T01:58:15.325Z,0
2017-06-29T01:59:14.744Z,0
2017-06-29T02:00:15.099Z,0
2017-06-29T02:01:14.804Z,0
2017-06-29T02:02:14.825Z,0
2017-06-29T02:03:15.726Z,0
2017-06-29T02:04:15.514Z,0
2017-06-29T02:05:15.532Z,0
2017-06-29T02:06:15.276Z,0
2017-06-29T02:07:15.292Z,0
2017-06-29T02:08:15.943Z,0
2017-06-29T02:09:15.038Z,0
2017-06-29T02:10:15.677Z,0
2017-06-29T02:11:15.410Z,0
2017-06-29T02:12:15.434Z,0
2017-06-29T02:13:16.070Z,0
2017-06-29T02:14:15.497Z,0
2017-06-29T02:15:15.837Z,0
2017-06-29T02:16:14.940Z,0
2017-06-29T02:17:15.909Z,0
2017-06-29T02:18:16.203Z,0
2017-06-29T02:19:15.936Z,0
2017-06-29T02:20:15.983Z,0
2017-06-29T02:21:15.686Z,0
2017-06-29T02:22:15.734Z,0
2017-06-29T02:23:16.060Z,0
2017-06-29T02:24:15.784Z,0
2017-06-29T02:25:15.500Z,0
2017-06-29T02:26:15.842Z,0
2017-06-29T02:27:15.866Z,0
2017-06-29T02:28:16.458Z,0
2017-06-29T02:29:16.243Z,0
2017-06-29T02:30:16.272Z,0
2017-06-29T02:31:16.300Z,0
2017-06-29T02:32:16.350Z,0
2017-06-29T02:33:16.047Z,0
2017-06-29T02:34:16.101Z,0
2017-06-29T02:35:16.117Z,0
2017-06-29T02:36:16.131Z,0
2017-06-29T02:37:16.171Z,0
2017-06-29T02:38:16.507Z,0
2017-06-29T02:39:16.228Z,0
2017-06-29T02:40:16.557Z,0
2017-06-29T02:41:16.309Z,0
2017-06-29T02:42:15.996Z,0
2017-06-29T02:43:16.911Z,0
2017-06-29T02:44:16.375Z,0
2017-06-29T02:45:16.392Z,0
2017-06-29T02:46:16.121Z,0
2017-06-29T02:47:16.454Z,0
2017-06-29T02:48:15.864Z,0
2017-06-29T02:49:16.837Z,0
2017-06-29T02:50:16.540Z,0
2017-06-29T02:51:16.577Z,0
2017-06-29T02:52:16.303Z,0
2017-06-29T02:53:17.207Z,0
2017-06-29T02:54:16.988Z,0
2017-06-29T02:55:16.701Z,0
2017-06-29T02:56:16.722Z,0
2017-06-29T02:57:17.055Z,0
2017-06-29T02:58:17.383Z,0
2017-06-29T02:59:17.116Z,0
2017-06-29T03:00:16.213Z,0
2017-06-29T03:01:16.866Z,0
2017-06-29T03:02:16.942Z,0
2017-06-29T03:03:17.485Z,0
2017-06-29T03:04:17.261Z,0
2017-06-29T03:05:16.986Z,0
2017-06-29T03:06:17.005Z,0
2017-06-29T03:07:16.419Z,0
2017-06-29T03:08:17.065Z,0
2017-06-29T03:09:17.716Z,0
2017-06-29T03:10:17.149Z,0
2017-06-29T03:11:17.454Z,0
2017-06-29T03:12:17.491Z,0
2017-06-29T03:13:17.215Z,0
2017-06-29T03:14:17.800Z,0
2017-06-29T03:15:17.278Z,0
2017-06-29T03:16:17.305Z,0
2017-06-29T03:17:17.655Z,0
2017-06-29T03:18:17.661Z,0
2017-06-29T03:19:17.692Z,0
2017-06-29T03:20:17.737Z,0
2017-06-29T03:21:17.763Z,0
2017-06-29T03:22:17.787Z,0
2017-06-29T03:23:17.513Z,0
2017-06-29T03:24:17.477Z,0
2017-06-29T03:25:17.244Z,0
2017-06-29T03:26:17.910Z,0
2017-06-29T03:27:17.623Z,0
2017-06-29T03:28:17.968Z,0
2017-06-29T03:29:18.296Z,0
2017-06-29T03:30:18.021Z,0
2017-06-29T03:31:18.037Z,0
2017-06-29T03:32:18.063Z,0
2017-06-29T03:33:17.793Z,0
2017-06-29T03:34:18.440Z,0
2017-06-29T03:35:17.853Z,0
2017-06-29T03:36:18.199Z,0
2017-06-29T03:37:17.906Z,0
2017-06-29T03:38:17.948Z,0
2017-06-29T03:39:17.899Z,0
2017-06-29T03:40:17.690Z,0
2017-06-29T03:41:18.066Z,0
2017-06-29T03:42:18.079Z,0
2017-06-29T03:43:18.417Z,0
2017-06-29T03:44:18.366Z,0
2017-06-29T03:45:18.170Z,0
2017-06-29T03:46:18.482Z,0
2017-06-29T03:47:18.210Z,0
2017-06-29T03:48:18.232Z,0
2017-06-29T03:49:18.517Z,0
2017-06-29T03:50:18.293Z,0
2017-06-29T03:51:18.002Z,0
2017-06-29T03:52:18.380Z,0
2017-06-29T03:53:18.075Z,0
2017-06-29T03:54:18.361Z,0
2017-06-29T03:55:18.118Z,0
2017-06-29T03:56:18.162Z,0
2017-06-29T03:57:18.180Z,0
2017-06-29T03:58:18.240Z,0
2017-06-29T03:59:19.178Z,0
2017-06-29T04:00:18.886Z,0
2017-06-29T04:01:18.311Z,0
2017-06-29T04:02:18.968Z,0
2017-06-29T04:03:18.673Z,0
2017-06-29T04:04:19.259Z,0
2017-06-29T04:05:19.024Z,0
2017-06-29T04:06:19.055Z,0
2017-06-29T04:07:18.148Z,0
2017-06-29T04:08:19.124Z,0
2017-06-29T04:09:19.457Z,0
2017-06-29T04:10:18.880Z,0
2017-06-29T04:11:19.219Z,0
2017-06-29T04:12:18.944Z,0
2017-06-29T04:13:18.660Z,0
2017-06-29T04:14:18.930Z,0
2017-06-29T04:15:18.394Z,0
2017-06-29T04:16:19.372Z,0
2017-06-29T04:17:18.786Z,0
2017-06-29T04:18:19.436Z,0
2017-06-29T04:19:19.753Z,0
2017-06-29T04:20:19.481Z,0
2017-06-29T04:21:19.486Z,0
2017-06-29T04:22:19.541Z,0
2017-06-29T04:23:19.570Z,0
2017-06-29T04:24:19.538Z,0
2017-06-29T04:25:19.622Z,0
2017-06-29T04:26:19.658Z,0
2017-06-29T04:27:19.687Z,0
2017-06-29T04:28:19.409Z,0
2017-06-29T04:29:20.002Z,0
2017-06-29T04:30:19.472Z,0
2017-06-29T04:31:19.484Z,0
2017-06-29T04:32:19.564Z,0
2017-06-29T04:33:19.848Z,0
2017-06-29T04:34:19.882Z,0
2017-06-29T04:35:19.609Z,0
2017-06-29T04:36:19.655Z,0
2017-06-29T04:37:19.664Z,0
2017-06-29T04:38:19.695Z,0
2017-06-29T04:39:19.659Z,5
2017-06-29T04:40:19.734Z,5
2017-06-29T04:41:19.762Z,5
2017-06-29T04:42:19.496Z,5
2017-06-29T04:43:20.153Z,5
2017-06-29T04:44:19.796Z,5
2017-06-29T04:45:20.202Z,5
2017-06-29T04:46:19.615Z,5
2017-06-29T04:47:19.338Z,5
2017-06-29T04:48:19.972Z,5
2017-06-29T04:49:20.565Z,5
2017-06-29T04:50:20.345Z,5
2017-06-29T04:51:20.395Z,10
2017-06-29T04:52:20.409Z,10
2017-06-29T04:53:20.130Z,10
2017-06-29T04:54:19.829Z,10
2017-06-29T04:55:20.187Z,10
2017-06-29T04:56:20.531Z,10
2017-06-29T04:57:19.929Z,10
2017-06-29T04:58:20.589Z,10
2017-06-29T04:59:19.926Z,10
2017-06-29T05:00:20.634Z,10
2017-06-29T05:01:20.668Z,10
2017-06-29T05:02:20.389Z,10
2017-06-29T05:03:20.717Z,10
2017-06-29T05:04:21.050Z,10
2017-06-29T05:05:20.778Z,10
2017-06-29T05:06:20.815Z,5
2017-06-29T05:07:20.526Z,10
2017-06-29T05:08:20.553Z,5
2017-06-29T05:09:21.146Z,5
2017-06-29T05:10:20.670Z,5
2017-06-29T05:11:20.652Z,5
2017-06-29T05:12:20.676Z,5
2017-06-29T05:13:20.688Z,5
2017-06-29T05:14:21.289Z,5
2017-06-29T05:15:20.791Z,0
2017-06-29T05:16:20.852Z,5
2017-06-29T05:17:20.511Z,0
2017-06-29T05:18:20.856Z,5
2017-06-29T05:19:21.138Z,0
2017-06-29T05:20:20.288Z,0
2017-06-29T05:21:21.259Z,0
2017-06-29T05:22:21.281Z,0
2017-06-29T05:23:21.005Z,0
2017-06-29T05:24:21.342Z,0
2017-06-29T05:25:21.059Z,0
2017-06-29T05:26:20.760Z,0
2017-06-29T05:27:21.416Z,0
2017-06-29T05:28:21.451Z,0
2017-06-29T05:29:21.782Z,0
2017-06-29T05:30:21.202Z,0
2017-06-29T05:31:21.243Z,0
2017-06-29T05:32:21.261Z,0
2017-06-29T05:33:20.969Z,0
2017-06-29T05:34:21.982Z,0
2017-06-29T05:35:21.387Z,0
2017-06-29T05:36:21.376Z,0
2017-06-29T05:37:21.721Z,0
2017-06-29T05:38:21.436Z,0
2017-06-29T05:39:21.463Z,5
2017-06-29T05:40:22.097Z,0
2017-06-29T05:41:21.507Z,5
2017-06-29T05:42:20.932Z,5
2017-06-29T05:43:21.589Z,0
2017-06-29T05:44:21.946Z,0
2017-06-29T05:45:21.883Z,0
2017-06-29T05:46:21.977Z,0
2017-06-29T05:47:21.992Z,0
2017-06-29T05:48:21.722Z,0
2017-06-29T05:49:21.759Z,0
2017-06-29T05:50:22.090Z,0
2017-06-29T05:51:22.132Z,0
2017-06-29T05:52:21.837Z,0
2017-06-29T05:53:22.183Z,0
2017-06-29T05:54:21.909Z,0
2017-06-29T05:55:22.527Z,0
2017-06-29T05:56:21.635Z,0
2017-06-29T05:57:22.293Z,5
2017-06-29T05:58:22.017Z,5
2017-06-29T05:59:22.346Z,5
2017-06-29T06:00:22.622Z,5
2017-06-29T06:01:22.408Z,5
2017-06-29T06:02:22.428Z,5
2017-06-29T06:03:22.161Z,0
2017-06-29T06:04:21.883Z,0
2017-06-29T06:05:22.539Z,5
2017-06-29T06:06:22.248Z,5
2017-06-29T06:07:22.277Z,5
2017-06-29T06:08:22.307Z,5
2017-06-29T06:09:22.006Z,5
2017-06-29T06:10:22.925Z,5
2017-06-29T06:11:22.709Z,5
2017-06-29T06:12:22.413Z,10
2017-06-29T06:13:22.449Z,15
2017-06-29T06:14:22.477Z,15
2017-06-29T06:15:22.760Z,15
2017-06-29T06:16:22.233Z,10
2017-06-29T06:17:22.901Z,5
2017-06-29T06:18:22.601Z,10
2017-06-29T06:19:22.935Z,15
2017-06-29T06:20:23.255Z,10
2017-06-29T06:21:22.973Z,10
2017-06-29T06:22:22.716Z,5
2017-06-29T06:23:23.047Z,5
2017-06-29T06:24:22.783Z,10
2017-06-29T06:25:23.047Z,10
2017-06-29T06:26:22.824Z,5
2017-06-29T06:27:22.880Z,5
2017-06-29T06:28:23.189Z,5
2017-06-29T06:29:23.236Z,10
2017-06-29T06:30:23.201Z,10
2017-06-29T06:31:23.277Z,15
2017-06-29T06:32:22.993Z,15
2017-06-29T06:33:23.034Z,10
2017-06-29T06:34:23.371Z,10
2017-06-29T06:35:23.691Z,10
2017-06-29T06:36:23.107Z,10
2017-06-29T06:37:22.832Z,10
2017-06-29T06:38:23.182Z,10
2017-06-29T06:39:23.215Z,10
2017-06-29T06:40:23.833Z,15
2017-06-29T06:41:23.565Z,15
2017-06-29T06:42:23.607Z,20
2017-06-29T06:43:23.314Z,20
2017-06-29T06:44:23.659Z,15
2017-06-29T06:45:23.635Z,10
2017-06-29T06:46:23.803Z,10
2017-06-29T06:47:23.749Z,10
2017-06-29T06:48:22.846Z,10
2017-06-29T06:49:23.491Z,15
2017-06-29T06:50:23.771Z,20
2017-06-29T06:51:23.538Z,25
2017-06-29T06:52:23.888Z,20
2017-06-29T06:53:23.959Z,25
2017-06-29T06:54:23.959Z,25
2017-06-29T06:55:23.919Z,25
2017-06-29T06:56:23.984Z,25
2017-06-29T06:57:23.707Z,25
2017-06-29T06:58:23.442Z,30
2017-06-29T06:59:24.102Z,30
2017-06-29T07:00:24.423Z,35
2017-06-29T07:01:24.173Z,35
2017-06-29T07:02:24.174Z,35
2017-06-29T07:03:23.894Z,30
2017-06-29T07:04:23.615Z,30
2017-06-29T07:05:24.566Z,35
2017-06-29T07:06:24.294Z,35
2017-06-29T07:07:23.698Z,35
2017-06-29T07:08:24.354Z,35
2017-06-29T07:09:24.075Z,35
2017-06-29T07:10:24.400Z,35
2017-06-29T07:11:24.436Z,40
2017-06-29T07:12:24.162Z,45
2017-06-29T07:13:24.191Z,35
2017-06-29T07:14:24.211Z,30
2017-06-29T07:15:24.495Z,40
2017-06-29T07:16:23.956Z,35
2017-06-29T07:17:24.310Z,35
2017-06-29T07:18:24.319Z,35
2017-06-29T07:19:24.372Z,30
2017-06-29T07:20:24.680Z,30
2017-06-29T07:21:24.744Z,25
2017-06-29T07:22:24.133Z,30
2017-06-29T07:23:24.470Z,30
2017-06-29T07:24:24.210Z,30
2017-06-29T07:25:24.820Z,35
2017-06-29T07:26:24.880Z,40
2017-06-29T07:27:24.902Z,40
2017-06-29T07:28:24.625Z,40
2017-06-29T07:29:24.971Z,45
2017-06-29T07:30:24.975Z,40
2017-06-29T07:31:24.713Z,40
2017-06-29T07:32:24.730Z,45
2017-06-29T07:33:24.762Z,40
2017-06-29T07:34:23.863Z,45
2017-06-29T07:35:25.075Z,45
2017-06-29T07:36:24.540Z,45
2017-06-29T07:37:24.889Z,35
2017-06-29T07:38:25.234Z,40
2017-06-29T07:39:25.258Z,40
2017-06-29T07:40:24.915Z,45
2017-06-29T07:41:24.994Z,45
2017-06-29T07:42:24.409Z,45
2017-06-29T07:43:24.746Z,40
2017-06-29T07:44:25.094Z,40
2017-06-29T07:45:25.682Z,40
2017-06-29T07:46:25.138Z,45
2017-06-29T07:47:25.493Z,40
2017-06-29T07:48:25.537Z,40
2017-06-29T07:49:25.616Z,40
2017-06-29T07:50:25.243Z,35
2017-06-29T07:51:25.853Z,35
2017-06-29T07:52:25.328Z,45
2017-06-29T07:53:25.355Z,45
2017-06-29T07:54:25.678Z,45
2017-06-29T07:55:25.398Z,50
2017-06-29T07:56:25.061Z,50
2017-06-29T07:57:25.461Z,50
2017-06-29T07:58:25.175Z,50
2017-06-29T07:59:25.204Z,50
2017-06-29T08:00:25.563Z,50
2017-06-29T08:01:25.834Z,50
2017-06-29T08:02:25.934Z,45
2017-06-29T08:03:25.325Z,45
2017-06-29T08:04:25.976Z,40
2017-06-29T08:05:26.056Z,40
2017-06-29T08:06:25.668Z,40
2017-06-29T08:07:25.137Z,40
2017-06-29T08:08:25.786Z,40
2017-06-29T08:09:25.814Z,40
2017-06-29T08:10:25.849Z,40
2017-06-29T08:11:26.177Z,40
2017-06-29T08:12:26.217Z,40
2017-06-29T08:13:25.922Z,40
2017-06-29T08:14:26.015Z,40
2017-06-29T08:15:25.980Z,45
2017-06-29T08:16:26.600Z,45
2017-06-29T08:17:26.370Z,45
2017-06-29T08:18:26.078Z,45
2017-06-29T08:19:26.435Z,45
2017-06-29T08:20:26.184Z,45
2017-06-29T08:21:26.438Z,50
2017-06-29T08:22:26.203Z,45
2017-06-29T08:23:26.548Z,45
2017-06-29T08:24:26.572Z,45
2017-06-29T08:25:26.293Z,45
2017-06-29T08:26:26.871Z,35
2017-06-29T08:27:26.349Z,40
2017-06-29T08:28:26.390Z,40
2017-06-29T08:29:26.087Z,35
2017-06-29T08:30:26.125Z,40
2017-06-29T08:31:26.733Z,40
2017-06-29T08:32:26.798Z,45
2017-06-29T08:33:26.526Z,45
2017-06-29T08:34:26.860Z,50
2017-06-29T08:35:26.591Z,45
2017-06-29T08:36:27.217Z,45
2017-06-29T08:37:26.646Z,45
2017-06-29T08:38:26.995Z,45
2017-06-29T08:39:26.681Z,45
2017-06-29T08:40:27.045Z,50
2017-06-29T08:41:27.325Z,50
2017-06-29T08:42:26.806Z,50
2017-06-29T08:43:27.142Z,55
2017-06-29T08:44:26.851Z,55
2017-06-29T08:45:27.183Z,55
2017-06-29T08:46:27.470Z,50
2017-06-29T08:47:26.934Z,50
2017-06-29T08:48:27.289Z,45
2017-06-29T08:49:27.316Z,50
2017-06-29T08:50:26.714Z,50
2017-06-29T08:51:27.310Z,50
2017-06-29T08:52:26.777Z,45
2017-06-29T08:53:26.806Z,45
2017-06-29T08:54:27.128Z,45
2017-06-29T08:55:26.864Z,45
2017-06-29T08:56:27.191Z,45
2017-06-29T08:57:27.233Z,45
2017-06-29T08:58:27.263Z,45
2017-06-29T08:59:27.284Z,45
2017-06-29T09:00:27.007Z,45
2017-06-29T09:01:27.946Z,45
2017-06-29T09:02:27.689Z,35
2017-06-29T09:03:27.724Z,50
2017-06-29T09:04:27.735Z,50
2017-06-29T09:05:27.776Z,50
2017-06-29T09:06:28.054Z,50
2017-06-29T09:07:27.835Z,50
2017-06-29T09:08:27.869Z,40
2017-06-29T09:09:27.588Z,35
2017-06-29T09:10:27.942Z,30
2017-06-29T09:11:27.355Z,25
2017-06-29T09:12:27.934Z,25
2017-06-29T09:13:28.020Z,25
2017-06-29T09:14:27.113Z,25
2017-06-29T09:15:28.081Z,30
2017-06-29T09:16:28.110Z,40
2017-06-29T09:17:28.074Z,45
2017-06-29T09:18:27.844Z,55
2017-06-29T09:19:27.567Z,55
2017-06-29T09:20:27.600Z,70
2017-06-29T09:21:27.930Z,70
2017-06-29T09:22:27.905Z,75
2017-06-29T09:23:27.684Z,80
2017-06-29T09:24:28.025Z,60
2017-06-29T09:25:27.746Z,55
2017-06-29T09:26:28.389Z,40
2017-06-29T09:27:28.361Z,30
2017-06-29T09:28:27.209Z,25
2017-06-29T09:29:28.496Z,25
2017-06-29T09:30:28.204Z,35
2017-06-29T09:31:28.550Z,50
2017-06-29T09:32:28.563Z,50
2017-06-29T09:33:28.605Z,35
2017-06-29T09:34:28.334Z,25
2017-06-29T09:35:28.665Z,30
2017-06-29T09:36:28.688Z,30
2017-06-29T09:37:28.654Z,25
2017-06-29T09:38:28.744Z,25
2017-06-29T09:39:28.480Z,25
2017-06-29T09:40:28.184Z,20
2017-06-29T09:41:28.831Z,20
2017-06-29T09:42:28.547Z,20
2017-06-29T09:43:28.603Z,25
2017-06-29T09:44:28.933Z,25
2017-06-29T09:45:28.961Z,35
2017-06-29T09:46:28.682Z,30
2017-06-29T09:47:29.014Z,30
2017-06-29T09:48:28.724Z,25
2017-06-29T09:49:28.761Z,25
2017-06-29T09:50:28.782Z,20
2017-06-29T09:51:28.507Z,20
2017-06-29T09:52:29.431Z,20
2017-06-29T09:53:29.220Z,20
2017-06-29T09:54:28.917Z,20
2017-06-29T09:55:28.932Z,20
2017-06-29T09:56:28.985Z,10
2017-06-29T09:57:29.254Z,10
2017-06-29T09:58:29.029Z,15
2017-06-29T09:59:29.108Z,20
2017-06-29T10:00:29.101Z,20
2017-06-29T10:01:29.138Z,20
2017-06-29T10:02:29.397Z,15
2017-06-29T10:03:29.180Z,15
2017-06-29T10:04:29.512Z,35
2017-06-29T10:05:28.932Z,40
2017-06-29T10:06:29.590Z,50
2017-06-29T10:07:29.579Z,50
2017-06-29T10:08:29.632Z,50
2017-06-29T10:09:29.369Z,45
2017-06-29T10:10:29.701Z,35
2017-06-29T10:11:29.100Z,35
2017-06-29T10:12:29.775Z,35
2017-06-29T10:13:29.792Z,35
2017-06-29T10:14:29.192Z,40
2017-06-29T10:15:29.541Z,45
2017-06-29T10:16:29.862Z,50
2017-06-29T10:17:30.147Z,60
2017-06-29T10:18:29.929Z,60
2017-06-29T10:19:28.708Z,60
2017-06-29T10:20:29.366Z,65
2017-06-29T10:21:29.701Z,70
2017-06-29T10:22:29.686Z,65
2017-06-29T10:23:30.096Z,70
2017-06-29T10:24:29.800Z,70
2017-06-29T10:25:29.831Z,70
2017-06-29T10:26:29.862Z,65
2017-06-29T10:27:30.449Z,65
2017-06-29T10:28:30.227Z,65
2017-06-29T10:29:30.253Z,70
2017-06-29T10:30:30.284Z,80
2017-06-29T10:31:29.694Z,75
2017-06-29T10:32:30.603Z,70
2017-06-29T10:33:30.075Z,65
2017-06-29T10:34:30.097Z,65
2017-06-29T10:35:30.430Z,65
2017-06-29T10:36:30.478Z,65
2017-06-29T10:37:30.477Z,70
2017-06-29T10:38:30.823Z,60
2017-06-29T10:39:29.928Z,75
2017-06-29T10:40:30.593Z,75
2017-06-29T10:41:30.618Z,75
2017-06-29T10:42:30.351Z,65
2017-06-29T10:43:30.968Z,80
2017-06-29T10:44:30.385Z,90
2017-06-29T10:45:30.410Z,100
2017-06-29T10:46:30.143Z,90
2017-06-29T10:47:30.803Z,85
2017-06-29T10:48:31.061Z,90
2017-06-29T10:49:30.853Z,85
2017-06-29T10:50:30.557Z,80
2017-06-29T10:51:30.906Z,75
2017-06-29T10:52:30.622Z,55
2017-06-29T10:53:30.903Z,50
2017-06-29T10:54:30.685Z,60
2017-06-29T10:55:30.402Z,60
2017-06-29T10:56:31.060Z,50
2017-06-29T10:57:31.099Z,65
2017-06-29T10:58:31.372Z,85
2017-06-29T10:59:31.146Z,60
2017-06-29T11:00:31.181Z,50
2017-06-29T11:01:30.891Z,50
2017-06-29T11:02:31.247Z,70
2017-06-29T11:03:31.567Z,55
2017-06-29T11:04:31.305Z,50
2017-06-29T11:05:31.010Z,45
2017-06-29T11:06:31.364Z,50
2017-06-29T11:07:31.384Z,55
2017-06-29T11:08:31.688Z,65
2017-06-29T11:09:31.461Z,65
2017-06-29T11:10:30.862Z,65
2017-06-29T11:11:30.887Z,75
2017-06-29T11:12:31.536Z,75
2017-06-29T11:13:31.548Z,75
2017-06-29T11:14:30.972Z,80
2017-06-29T11:15:31.329Z,80
2017-06-29T11:16:31.345Z,80
2017-06-29T11:17:31.687Z,65
2017-06-29T11:18:31.973Z,75
2017-06-29T11:19:31.445Z,60
2017-06-29T11:20:31.781Z,55
2017-06-29T11:21:31.494Z,65
2017-06-29T11:22:31.527Z,65
2017-06-29T11:23:31.865Z,65
2017-06-29T11:24:31.595Z,95
2017-06-29T11:25:31.624Z,95
2017-06-29T11:26:31.654Z,100
2017-06-29T11:27:31.675Z,95
2017-06-29T11:28:31.705Z,105
2017-06-29T11:29:31.109Z,125
2017-06-29T11:30:31.455Z,130
2017-06-29T11:31:32.119Z,130
2017-06-29T11:32:31.520Z,70
2017-06-29T11:33:31.805Z,75
2017-06-29T11:34:32.182Z,315
2017-06-29T11:35:32.234Z,280
2017-06-29T11:36:31.946Z,300
2017-06-29T11:37:31.663Z,280
2017-06-29T11:38:32.255Z,235
2017-06-29T11:39:31.717Z,350
2017-06-29T11:40:31.444Z,355
2017-06-29T11:41:32.112Z,385
2017-06-29T11:42:32.124Z,395
2017-06-29T11:43:32.087Z,310
2017-06-29T11:44:32.177Z,175
2017-06-29T11:45:32.219Z,110
2017-06-29T11:46:32.563Z,490
2017-06-29T11:47:32.276Z,95
2017-06-29T11:48:32.852Z,80
2017-06-29T11:49:32.337Z,40
2017-06-29T11:50:32.686Z,25
2017-06-29T11:51:32.710Z,25
2017-06-29T11:52:32.440Z,35
2017-06-29T11:53:33.028Z,65
2017-06-29T11:54:32.798Z,110
2017-06-29T11:55:32.837Z,130
2017-06-29T11:56:31.930Z,555
2017-06-29T11:57:32.916Z,940
2017-06-29T11:58:32.864Z,115
2017-06-29T11:59:32.638Z,385
2017-06-29T12:00:32.679Z,90
2017-06-29T12:01:33.010Z,105
2017-06-29T12:02:33.036Z,225
2017-06-29T12:03:33.324Z,175
2017-06-29T12:04:32.806Z,110
2017-06-29T12:05:32.829Z,165
2017-06-29T12:06:32.846Z,595
2017-06-29T12:07:33.204Z,500
2017-06-29T12:08:33.468Z,155
2017-06-29T12:09:32.938Z,300
2017-06-29T12:10:33.290Z,230
2017-06-29T12:11:33.315Z,65
2017-06-29T12:12:33.028Z,50
2017-06-29T12:13:32.774Z,35
2017-06-29T12:14:33.358Z,25
2017-06-29T12:15:33.141Z,20
2017-06-29T12:16:33.475Z,20
2017-06-29T12:17:33.520Z,20
2017-06-29T12:18:33.549Z,25
2017-06-29T12:19:33.921Z,20
2017-06-29T12:20:33.294Z,20
2017-06-29T12:21:33.642Z,30
2017-06-29T12:22:33.372Z,45
2017-06-29T12:23:33.084Z,45
2017-06-29T12:24:33.670Z,60
2017-06-29T12:25:33.450Z,80
2017-06-29T12:26:33.793Z,65
2017-06-29T12:27:33.829Z,75
2017-06-29T12:28:33.850Z,85
2017-06-29T12:29:33.509Z,60
2017-06-29T12:30:33.608Z,60
2017-06-29T12:31:33.946Z,75
2017-06-29T12:32:33.348Z,65
2017-06-29T12:33:34.013Z,40
2017-06-29T12:34:34.031Z,50
2017-06-29T12:35:34.055Z,60
2017-06-29T12:36:33.786Z,95
2017-06-29T12:37:34.123Z,595
2017-06-29T12:38:33.840Z,660
2017-06-29T12:39:34.130Z,465
2017-06-29T12:40:33.907Z,205
2017-06-29T12:41:34.264Z,150
2017-06-29T12:42:33.953Z,100
2017-06-29T12:43:34.032Z,75
2017-06-29T12:44:34.326Z,60
2017-06-29T12:45:34.382Z,55
2017-06-29T12:46:33.780Z,55
2017-06-29T12:47:34.424Z,55
2017-06-29T12:48:34.157Z,50
2017-06-29T12:49:34.122Z,50
2017-06-29T12:50:34.522Z,50
2017-06-29T12:51:34.229Z,55
2017-06-29T12:52:34.572Z,55
2017-06-29T12:53:34.313Z,50
2017-06-29T12:54:34.279Z,45
2017-06-29T12:55:33.742Z,45
2017-06-29T12:56:34.719Z,45
2017-06-29T12:57:33.813Z,65
2017-06-29T12:58:34.165Z,140
2017-06-29T12:59:34.486Z,385
2017-06-29T13:00:34.535Z,160
2017-06-29T13:01:34.239Z,205
2017-06-29T13:02:34.256Z,400
2017-06-29T13:03:34.903Z,150
2017-06-29T13:04:35.206Z,95
2017-06-29T13:05:34.680Z,75
2017-06-29T13:06:34.711Z,60
2017-06-29T13:07:34.748Z,60
2017-06-29T13:08:35.081Z,100
2017-06-29T13:09:35.355Z,160
2017-06-29T13:10:34.207Z,130
2017-06-29T13:11:34.853Z,140
2017-06-29T13:12:34.889Z,270
2017-06-29T13:13:35.226Z,315
2017-06-29T13:14:35.243Z,225
2017-06-29T13:15:34.659Z,160
2017-06-29T13:16:35.330Z,130
2017-06-29T13:17:35.350Z,290
2017-06-29T13:18:35.385Z,165
2017-06-29T13:19:35.047Z,105
2017-06-29T13:20:35.446Z,160
2017-06-29T13:21:35.484Z,290
2017-06-29T13:22:35.197Z,185
2017-06-29T13:23:35.234Z,225
2017-06-29T13:24:35.513Z,230
2017-06-29T13:25:34.987Z,190
2017-06-29T13:26:35.647Z,170
2017-06-29T13:27:35.672Z,150
2017-06-29T13:28:35.377Z,140
2017-06-29T13:29:35.402Z,135
2017-06-29T13:30:35.755Z,125
2017-06-29T13:31:35.155Z,60
2017-06-29T13:32:35.208Z,70
2017-06-29T13:33:35.864Z,60
2017-06-29T13:34:35.827Z,30
2017-06-29T13:35:35.598Z,20
2017-06-29T13:36:35.315Z,15
2017-06-29T13:37:35.972Z,15
2017-06-29T13:38:35.999Z,10
2017-06-29T13:39:36.283Z,10
2017-06-29T13:40:36.076Z,5
2017-06-29T13:41:35.793Z,5
2017-06-29T13:42:35.841Z,5
2017-06-29T13:43:35.551Z,5
2017-06-29T13:44:36.498Z,5
2017-06-29T13:45:35.915Z,5
2017-06-29T13:46:36.252Z,5
2017-06-29T13:47:36.296Z,10
2017-06-29T13:48:36.313Z,10
2017-06-29T13:49:36.640Z,10
2017-06-29T13:50:35.752Z,10
2017-06-29T13:51:36.127Z,10
2017-06-29T13:52:36.440Z,10
2017-06-29T13:53:36.178Z,10
2017-06-29T13:54:36.486Z,10
2017-06-29T13:55:35.286Z,15
2017-06-29T13:56:35.953Z,15
2017-06-29T13:57:36.601Z,15
2017-06-29T13:58:36.326Z,20
2017-06-29T13:59:36.911Z,25
2017-06-29T14:00:36.368Z,30
2017-06-29T14:01:36.092Z,40
2017-06-29T14:02:36.428Z,40
2017-06-29T14:03:36.159Z,45
2017-06-29T14:04:37.099Z,65
2017-06-29T14:05:36.556Z,70
2017-06-29T14:06:36.564Z,70
2017-06-29T14:07:36.893Z,65
2017-06-29T14:08:36.926Z,60
2017-06-29T14:09:37.221Z,60
2017-06-29T14:10:36.364Z,60
2017-06-29T14:11:37.012Z,55
2017-06-29T14:12:36.423Z,50
2017-06-29T14:13:36.761Z,50
2017-06-29T14:14:37.399Z,50
2017-06-29T14:15:36.859Z,55
2017-06-29T14:16:36.853Z,80
2017-06-29T14:17:37.201Z,125
2017-06-29T14:18:36.615Z,140
2017-06-29T14:19:36.938Z,115
2017-06-29T14:20:36.979Z,110
2017-06-29T14:21:36.700Z,110
2017-06-29T14:22:37.084Z,100
2017-06-29T14:23:37.379Z,95
2017-06-29T14:24:37.718Z,95
2017-06-29T14:25:36.812Z,110